Tiempo atmosférico en la estación meteorológica de Alcoy/Alcoi, Alacant/Alicante (600 m.)



Fecha
DESCASC
Temp. máxima en grados centígrados (hora)
DESCASC
Temp. mínima en grados centígrados (hora)
DESCASC
Temp. media en grados centígrados
DESCASC
Racha de viento máxima en m/sg (hora)
DESCASC
Velocidad máxima media en intervalos de 10 minutos(hora)
DESCASC
Precipitaciones diarias en mm
DESCASC
Precipitaciones de 00:00 a 06:00 en mm
DESCASC
Precipitaciones de 06:00 a 12:00 en mm
DESCASC
Precipitaciones de 12:00 a 18:00 en mm
DESCASC
Precipitaciones de 18:00 a 24:00 en mm
DESCASC
21-02-2019 15.8 (15:00) 2.1 (08:10) 9 5.28 (15:20) 3.33 (02:50) 0 0 0 0 0
20-02-2019 15.3 (15:20) 2.6 (08:10) 9 6.11 (16:40) 3.33 (16:40) 0 0 0 0 0
19-02-2019 14.1 (14:30) 4.8 (07:10) 9.5 7.5 (14:40) 4.17 (15:10) 0 0 0 0 0
18-02-2019 14.2 (15:00) 1.6 (08:20) 7.9 6.67 (14:50) 3.89 (15:30) 0 0 0 0 0
17-02-2019 13.3 (15:50) 1 (00:00) 7.2 5 (17:10) 3.06 (17:10) 0 0 0 0 0
16-02-2019 13.5 (14:40) 3.9 (00:00) 8.7 7.78 (16:00) 3.61 (14:30) 0 0 0 0 0
15-02-2019 13.1 (15:00) 4.6 (00:00) 8.9 6.94 (14:10) 3.89 (14:20) 0 0 0 0 0
14-02-2019 13 (14:50) 2.2 (00:00) 7.6 6.39 (16:50) 3.61 (16:50) 0 0 0 0 0
13-02-2019 15.9 (15:00) 2.1 (00:00) 9 5.83 (08:30) 3.89 (08:30) 0 0 0 0 0
12-02-2019 15.7 (14:40) 2.4 (00:00) 9 6.11 (18:00) 3.06 (09:00) 0 0 0 0 0
11-02-2019 17.7 (14:40) 5.8 (00:00) 11.8 8.33 (13:40) 3.89 (13:40) 0 0 0 0 0
10-02-2019 16 (14:00) 7.3 (00:00) 11.7 16.39 (11:10) 6.94 (12:20) 0 0 0 0 0
09-02-2019 21.5 (15:10) 5.8 (00:00) 13.7 6.39 (14:20) 4.44 (08:40) 0 0 0 0 0
08-02-2019 19.8 (15:20) 6.1 (00:00) 12.9 7.78 (13:00) 4.44 (13:00) 0 0 0 0 0
07-02-2019 20.3 (16:00) 9 (00:00) 14.6 7.5 (04:20) 5.28 (04:40) 0 0 0 0 0
06-02-2019 21.1 (15:20) 6.5 (00:00) 13.8 6.11 (16:00) 4.17 (23:40) 0 0 0 0 0
05-02-2019 17.1 (14:20) 4.8 (00:00) 11 7.22 (15:20) 3.61 (21:30) 0 0 0 0 0
04-02-2019 14.7 (16:20) -0.4 (00:00) 7.1 6.39 (00:40) 4.17 (05:20) 0 0 0 0 0
03-02-2019 9.8 (15:10) 2.9 (00:00) 6.4 14.17 (11:00) 6.67 (11:00) 0 0 0 0 0
02-02-2019 11 (16:00) 4.6 (00:00) 7.8 22.5 (08:10) 11.39 (08:40) 0 0 0 0 0
01-02-2019 14.5 (13:50) 6.9 (00:00) 10.7 16.11 (14:50) 8.06 (20:50) 2.2 0 1.8 0.4 0
31-01-2019 16.9 (15:20) 10 (00:00) 13.4 20 (17:00) 9.72 (17:30) 0 0 0 0 0
30-01-2019 13.1 (15:40) 7.9 (00:00) 10.5 15.83 (01:30) 7.22 (03:10) 0 0 0 0 0
29-01-2019 14 (14:40) 6.4 (00:00) 10.2 16.94 (15:10) 8.89 (15:20) 0 0 0 0 0
28-01-2019 14.7 (15:40) 7.2 (00:00) 10.9 16.94 (13:10) 9.17 (13:30) 0 0 0 0 0
27-01-2019 15.3 (12:40) 9.6 (00:00) 12.5 13.33 (11:10) 6.67 (13:00) 0 0 0 0 0
26-01-2019 18.7 (16:50) 4.2 (00:00) 11.5 9.17 (21:50) 4.72 (21:50) 0 0 0 0 0
25-01-2019 17.3 (15:10) 9.9 (00:00) 13.6 10.83 (00:20) 4.17 (12:40) 0 0 0 0 0
24-01-2019 12.9 (01:10) 9.8 (00:00) 11.3 15.83 (01:10) 6.94 (02:40) 0 0 0 0 0

Gráficas

Temp. máximas Temp. mínimas Temp. medias Precipitaciones Rachas de viento máximas Velocidades máximas media en intervalos de 10 minutos

Datos horarios

Fecha y hora oficial Temperatura (ºC) Velocidad del viento (km/h) Dirección del viento Racha (km/h) Dirección de racha Precipitación (mm) Presión (hPa) Tendencia (hPa) Humedad (%)
2019-02-22 23:00:00 12.1 10 Sudoeste 20 Sudoeste 0 -- -- 35
2019-02-22 22:00:00 12.6 8 Oeste 21 Sudoeste 0 -- -- 37
2019-02-22 21:00:00 12.1 10 Sudoeste 21 Sudoeste 0 -- -- 41
2019-02-22 20:00:00 13.4 11 Sudoeste 18 Oeste 0 -- -- 37
2019-02-22 19:00:00 14.7 6 Oeste 11 Oeste 0 -- -- 27
2019-02-22 18:00:00 19.3 2 Este 12 Este 0 -- -- 15
2019-02-22 17:00:00 19.7 6 Este 15 Este 0 -- -- 15
2019-02-22 16:00:00 19.8 8 Nordeste 16 Nordeste 0 -- -- 17
2019-02-22 15:00:00 20.1 9 Nordeste 18 Este 0 -- -- 21
2019-02-22 14:00:00 18.9 9 Nordeste 22 Este 0 -- -- 26
2019-02-22 13:00:00 17.6 10 Este 16 Este 0 -- -- 25
2019-02-22 12:00:00 16 7 Este 12 Este 0 -- -- 29
2019-02-22 11:00:00 14.1 3 Este 8 Nordeste 0 -- -- 36
2019-02-22 10:00:00 11.2 3 Sudoeste 10 Sudoeste 0 -- -- 36
2019-02-22 09:00:00 6.5 5 Sudoeste 20 Sudoeste 0 -- -- 41
2019-02-22 08:00:00 3.8 13 Sudoeste 21 Sudoeste 0 -- -- 46
2019-02-22 07:00:00 4.1 12 Sudoeste 17 Sudoeste 0 -- -- 47
2019-02-22 06:00:00 4.1 9 Sudoeste 15 Sudoeste 0 -- -- 46
2019-02-22 05:00:00 3.4 8 Sudoeste 19 Sudoeste 0 -- -- 50
2019-02-22 04:00:00 3.8 12 Sudoeste 17 Sudoeste 0 -- -- 53
2019-02-22 03:00:00 3.8 9 Oeste 17 Oeste 0 -- -- 63
2019-02-22 02:00:00 4.2 8 Sudoeste 17 Sudoeste 0 -- -- 71
2019-02-22 01:00:00 4.8 9 Sudoeste 16 Sudoeste 0 -- -- 74
2019-02-22 00:00:00 5.1 9 Sudoeste 16 Sudoeste 0 -- -- 78
2019-02-21 23:00:00 6 9 Sudoeste 14 Sudoeste 0 -- -- 78
2019-02-21 22:00:00 7.2 7 Sudoeste 15 Sudoeste 0 -- -- 76
2019-02-21 21:00:00 8.6 8 Sudoeste 11 Sudoeste 0 -- -- 74
2019-02-21 20:00:00 9.5 3 Sur 4 Sur 0 -- -- 75
2019-02-21 19:00:00 11.4 3 Este 13 Nordeste 0 -- -- 68
2019-02-21 18:00:00 13.4 9 Nordeste 18 Nordeste 0 -- -- 61
2019-02-21 17:00:00 15.2 8 Nordeste 19 Nordeste 0 -- -- 54
2019-02-21 16:00:00 15.8 7 Nordeste 19 Este 0 -- -- 49
2019-02-21 15:00:00 15.8 8 Nordeste 18 Este 0 -- -- 45
2019-02-21 14:00:00 15 8 Nordeste 18 Nordeste 0 -- -- 41
2019-02-21 13:00:00 13.1 9 Este 16 Este 0 -- -- 51
2019-02-21 12:00:00 11.3 8 Este 15 Este 0 -- -- 59
2019-02-21 11:00:00 9.9 6 Este 10 Nordeste 0 -- -- 62
2019-02-21 10:00:00 8.7 0 Calma 13 Sudoeste 0 -- -- 59
2019-02-21 09:00:00 3.7 9 Sudoeste 15 Sudoeste 0 -- -- 77
2019-02-21 08:00:00 2.2 9 Sudoeste 14 Oeste 0 -- -- 85
2019-02-21 07:00:00 2.5 8 Oeste 14 Oeste 0 -- -- 88
2019-02-21 06:00:00 3.1 7 Sudoeste 14 Sudoeste 0 -- -- 92
2019-02-21 05:00:00 3.8 10 Sudoeste 15 Sudoeste 0 -- -- 90
2019-02-21 04:00:00 4.2 7 Sudoeste 13 Sudoeste 0 -- -- 91
2019-02-21 03:00:00 4.1 7 Sudoeste 18 Sudoeste 0 -- -- 90
2019-02-21 02:00:00 4.4 5 Sudoeste 15 Sudoeste 0 -- -- 87
2019-02-21 01:00:00 5.1 7 Sudoeste 13 Sudoeste 0 -- -- 87
2019-02-21 00:00:00 5.8 6 Sudoeste 9 Oeste 0 -- -- 88
2019-02-20 23:00:00 5.4 0 Calma 2 Sudoeste 0 -- -- 92
2019-02-20 22:00:00 7.3 0 Calma 5 Sur 0 -- -- 91
2019-02-20 21:00:00 7.3 2 Sur 8 Sudeste 0 -- -- 92
2019-02-20 20:00:00 8.2 5 Este 14 Nordeste 0 -- -- 86
2019-02-20 19:00:00 9.9 8 Nordeste 17 Nordeste 0 -- -- 79
2019-02-20 18:00:00 12.2 7 Nordeste 18 Este 0 -- -- 68
2019-02-20 17:00:00 13.8 10 Nordeste 22 Nordeste 0 -- -- 58
2019-02-20 16:00:00 14.9 9 Nordeste 17 Este 0 -- -- 50
2019-02-20 15:00:00 14.8 7 Nordeste 18 Este 0 -- -- 42
2019-02-20 14:00:00 14.2 9 Este 17 Este 0 -- -- 44
2019-02-20 13:00:00 12.4 8 Este 16 Este 0 -- -- 53
2019-02-20 12:00:00 10.3 8 Este 14 Este 0 -- -- 67
2019-02-20 11:00:00 9 4 Este 8 Este 0 -- -- 71
2019-02-20 10:00:00 8 0 Calma 6 Este 0 -- -- 69
2019-02-20 09:00:00 4.1 3 Sur 6 Sur 0 -- -- 86
2019-02-20 08:00:00 2.8 5 Sur 8 Sur 0 -- -- 93
2019-02-20 07:00:00 3.5 5 Sur 11 Sudoeste 0 -- -- 93
2019-02-20 06:00:00 5 4 Sudoeste 12 Sudoeste 0 -- -- 86
2019-02-20 05:00:00 5 6 Sudoeste 9 Oeste 0 -- -- 87
2019-02-20 04:00:00 5.3 5 Oeste 11 Sudoeste 0 -- -- 87
2019-02-20 03:00:00 6.1 4 Sudoeste 7 Oeste 0 -- -- 90
2019-02-20 02:00:00 6.4 2 Sur 5 Sur 0 -- -- 91
2019-02-20 01:00:00 6.6 2 Sudoeste 4 Sur 0 -- -- 93
2019-02-20 00:00:00 7 0 Calma 2 Norte 0 -- -- 95
2019-02-19 23:00:00 6.9 0 Calma 6 Este 0 -- -- 94
2019-02-19 22:00:00 7.8 4 Este 7 Sudeste 0 -- -- 92
2019-02-19 21:00:00 8.1 2 Este 8 Este 0 -- -- 91
2019-02-19 20:00:00 8.3 4 Este 10 Este 0 -- -- 87
2019-02-19 19:00:00 9.2 5 Nordeste 16 Este 0 -- -- 84
2019-02-19 18:00:00 10.5 8 Nordeste 17 Nordeste 0 -- -- 76
2019-02-19 17:00:00 11.7 10 Nordeste 24 Nordeste 0 -- -- 70
2019-02-19 16:00:00 12.9 12 Nordeste 25 Nordeste 0 -- -- 63
2019-02-19 15:00:00 13.3 14 Nordeste 27 Este 0 -- -- 59
2019-02-19 14:00:00 13.4 13 Nordeste 22 Este 0 -- -- 56
2019-02-19 13:00:00 12.5 11 Este 19 Este 0 -- -- 57
2019-02-19 12:00:00 11.9 6 Este 13 Nordeste 0 -- -- 60
2019-02-19 11:00:00 10.2 5 Este 11 Este 0 -- -- 67
2019-02-19 10:00:00 7.7 3 Sudeste 6 Este 0 -- -- 81
2019-02-19 09:00:00 6.1 2 Este 6 Este 0 -- -- 87
2019-02-19 08:00:00 5.2 2 Noroeste 5 Sur 0 -- -- 88
2019-02-19 07:00:00 5 0 Calma 3 Este 0 -- -- 90
2019-02-19 06:00:00 5.4 2 Sur 5 Este 0 -- -- 89
2019-02-19 05:00:00 5.7 0 Calma 6 Nordeste 0 -- -- 88
2019-02-19 04:00:00 6.3 3 Este 9 Sudoeste 0 -- -- 86
2019-02-19 03:00:00 6.8 5 Sudoeste 10 Sudoeste 0 -- -- 82
2019-02-19 02:00:00 6.6 0 Calma 7 Oeste 0 -- -- 85
2019-02-19 01:00:00 6.2 0 Calma 4 Nordeste 0 -- -- 90
2019-02-19 00:00:00 6.6 2 Nordeste 3 Este 0 -- -- 89
2019-02-18 23:00:00 7.3 2 Nordeste 4 Nordeste 0 -- -- 89
2019-02-18 22:00:00 7.4 0 Calma 4 Este 0 -- -- 90
2019-02-18 21:00:00 6.7 0 Calma 7 Este 0 -- -- 91
2019-02-18 20:00:00 7.9 4 Este 9 Este 0 -- -- 88
2019-02-18 19:00:00 9.1 5 Este 11 Este 0 -- -- 83
2019-02-18 18:00:00 11.5 5 Este 18 Nordeste 0 -- -- 74
2019-02-18 17:00:00 13.2 8 Nordeste 20 Nordeste 0 -- -- 67
2019-02-18 16:00:00 13.7 12 Nordeste 22 Nordeste 0 -- -- 64
2019-02-18 15:00:00 14.2 11 Nordeste 24 Nordeste 0 -- -- 61
2019-02-18 14:00:00 13.1 12 Nordeste 21 Nordeste 0 -- -- 61
2019-02-18 13:00:00 11.9 10 Nordeste 20 Nordeste 0 -- -- 70
2019-02-18 12:00:00 9.9 9 Este 19 Este 0 -- -- 76
2019-02-18 11:00:00 8.3 3 Sudeste 6 Sudeste 0 -- -- 78
2019-02-18 10:00:00 5 4 Oeste 13 Sudoeste 0 -- -- 88
2019-02-18 09:00:00 2.2 7 Sudoeste 13 Sudoeste 0 -- -- 82
2019-02-18 08:00:00 1.9 6 Sudoeste 9 Sudoeste 0 -- -- 84
2019-02-18 07:00:00 2 4 Sudoeste 6 Sudoeste 0 -- -- 85
2019-02-18 06:00:00 1.9 2 Noroeste 5 Oeste 0 -- -- 92
2019-02-18 05:00:00 2.7 3 Oeste 12 Sudoeste 0 -- -- 94
2019-02-18 04:00:00 4 7 Sudoeste 14 Sudoeste 0 -- -- 91
2019-02-18 03:00:00 4.8 5 Sudoeste 11 Sudoeste 0 -- -- 89
2019-02-18 02:00:00 5 7 Sudoeste 13 Sudoeste 0 -- -- 87
2019-02-18 01:00:00 5.2 6 Sudoeste 13 Sudoeste 0 -- -- 88
2019-02-18 00:00:00 5.9 3 Oeste 10 Sudoeste 0 -- -- 87
2019-02-17 23:00:00 7.4 5 Sudoeste 9 Sudoeste 0 -- -- 86
2019-02-17 22:00:00 7.9 2 Sur 4 Sudoeste 0 -- -- 89
2019-02-17 21:00:00 7.8 0 Calma 3 Sudeste 0 -- -- 92
2019-02-17 20:00:00 7.3 0 Calma 8 Este 0 -- -- 92
2019-02-17 19:00:00 8.4 4 Este 17 Nordeste 0 -- -- 88
2019-02-17 18:00:00 10.5 8 Este 18 Este 0 -- -- 78
2019-02-17 17:00:00 12.6 10 Este 17 Este 0 -- -- 68
2019-02-17 16:00:00 13.1 9 Nordeste 14 Nordeste 0 -- -- 63
2019-02-17 15:00:00 12.5 7 Nordeste 15 Este 0 -- -- 64
2019-02-17 14:00:00 11.9 7 Este 17 Este 0 -- -- 66
2019-02-17 13:00:00 10.4 8 Nordeste 15 Este 0 -- -- 73
2019-02-17 12:00:00 9.7 4 Este 9 Sudeste 0 -- -- 72
2019-02-17 11:00:00 6.3 6 Oeste 11 Sudoeste 0 -- -- 83
2019-02-17 10:00:00 3.8 7 Sudoeste 15 Sudoeste 0 -- -- 85
2019-02-17 09:00:00 1.9 10 Sudoeste 15 Sudoeste 0 -- -- 87
2019-02-17 08:00:00 1.7 9 Sudoeste 13 Sudoeste 0 -- -- 80
2019-02-17 07:00:00 1.7 5 Oeste 10 Sudoeste 0 -- -- 78
2019-02-17 06:00:00 1.2 5 Oeste 9 Sudoeste 0 -- -- 78
2019-02-17 05:00:00 1.1 3 Sudoeste 9 Oeste 0 -- -- 81
2019-02-17 04:00:00 1.9 5 Oeste 12 Sudoeste 0 -- -- 78
2019-02-17 03:00:00 2.4 6 Sudoeste 14 Sudoeste 0 -- -- 79
2019-02-17 02:00:00 2.7 9 Sudoeste 14 Sudoeste 0 -- -- 81
2019-02-17 01:00:00 3.3 6 Oeste 10 Sudoeste 0 -- -- 82
2019-02-17 00:00:00 3.9 7 Oeste 12 Sudoeste 0 -- -- 85
2019-02-16 23:00:00 4.3 8 Sudoeste 13 Sudoeste 0 -- -- 87
2019-02-16 22:00:00 5.2 0 Calma 5 Sudoeste 0 -- -- 86
2019-02-16 21:00:00 5.8 0 Calma 4 Sudoeste 0 -- -- 88
2019-02-16 20:00:00 7.1 3 Sudeste 11 Este 0 -- -- 86
2019-02-16 19:00:00 8.7 7 Este 19 Este 0 -- -- 78
2019-02-16 18:00:00 10.5 11 Este 20 Nordeste 0 -- -- 69
2019-02-16 17:00:00 12 12 Nordeste 23 Este 0 -- -- 64
2019-02-16 16:00:00 13.4 12 Nordeste 28 Nordeste 0 -- -- 58
2019-02-16 15:00:00 13.2 12 Nordeste 22 Este 0 -- -- 57
2019-02-16 14:00:00 13.1 9 Nordeste 22 Nordeste 0 -- -- 57
2019-02-16 13:00:00 12.1 11 Nordeste 21 Este 0 -- -- 61
2019-02-16 12:00:00 10.5 10 Nordeste 22 Este 0 -- -- 67
2019-02-16 11:00:00 9.4 11 Nordeste 19 Este 0 -- -- 72
2019-02-16 10:00:00 7.9 3 Este 6 Este 0 -- -- 75
2019-02-16 09:00:00 7.1 0 Calma 4 Sur 0 -- -- 80
2019-02-16 08:00:00 5.3 0 Calma 3 Sur 0 -- -- 86
2019-02-16 07:00:00 5.5 3 Sur 5 Sur 0 -- -- 83
2019-02-16 06:00:00 5.8 2 Este 4 Sudeste 0 -- -- 84
2019-02-16 05:00:00 5.9 0 Calma 11 Este 0 -- -- 85
2019-02-16 04:00:00 6.4 3 Norte 7 Este 0 -- -- 83
2019-02-16 03:00:00 6.7 3 Este 11 Este 0 -- -- 85
2019-02-16 02:00:00 7 4 Este 10 Este 0 -- -- 85
2019-02-16 01:00:00 7.5 2 Norte 8 Nordeste 0 -- -- 85
2019-02-16 00:00:00 7.7 4 Nordeste 10 Nordeste 0 -- -- 87
2019-02-15 23:00:00 8 5 Nordeste 9 Nordeste 0 -- -- 87
2019-02-15 22:00:00 8 4 Nordeste 11 Este 0 -- -- 90
2019-02-15 21:00:00 8.1 6 Nordeste 10 Este 0 -- -- 89
2019-02-15 20:00:00 8.1 3 Este 8 Este 0 -- -- 90
2019-02-15 19:00:00 8 5 Este 17 Este 0 -- -- 89
2019-02-15 18:00:00 9.5 9 Este 22 Este 0 -- -- 82
2019-02-15 17:00:00 11.1 13 Nordeste 23 Este 0 -- -- 74
2019-02-15 16:00:00 12.5 11 Nordeste 24 Este 0 -- -- 68
2019-02-15 15:00:00 13.1 10 Nordeste 25 Nordeste 0 -- -- 65
2019-02-15 14:00:00 12.6 12 Nordeste 20 Nordeste 0 -- -- 65
2019-02-15 13:00:00 11.6 9 Este 16 Este 0 -- -- 66
2019-02-15 12:00:00 10.5 3 Nordeste 10 Nordeste 0 -- -- 68
2019-02-15 11:00:00 7.6 3 Sudeste 7 Sur 0 -- -- 81
2019-02-15 10:00:00 6.1 0 Calma 8 Sur 0 -- -- 85
2019-02-15 09:00:00 5 2 Sur 9 Nordeste 0 -- -- 87
2019-02-15 08:00:00 4.6 4 Nordeste 9 Este 0 -- -- 88
2019-02-15 07:00:00 5.3 0 Calma 4 Noroeste 0 -- -- 86
2019-02-15 06:00:00 5.7 0 Calma 7 Sudeste 0 -- -- 85
2019-02-15 05:00:00 6 0 Calma 8 Oeste 0 -- -- 84
2019-02-15 04:00:00 6.1 0 Calma 4 Sur 0 -- -- 84
2019-02-15 03:00:00 6.2 3 Sur 8 Este 0 -- -- 84
2019-02-15 02:00:00 6.6 3 Este 5 Sudeste 0 -- -- 85
2019-02-15 01:00:00 6.8 2 Sudeste 4 Este 0 -- -- 86
2019-02-15 00:00:00 6.6 0 Calma 5 Nordeste 0 -- -- 87
2019-02-14 23:00:00 6.7 2 Este 6 Nordeste 0 -- -- 82
2019-02-14 22:00:00 6.8 3 Oeste 6 Sudoeste 0 -- -- 81
2019-02-14 21:00:00 5.7 0 Calma 7 Sudeste 0 -- -- 88
2019-02-14 20:00:00 7 3 Sudeste 14 Este 0 -- -- 84
2019-02-14 19:00:00 8.2 8 Este 16 Nordeste 0 -- -- 77
2019-02-14 18:00:00 9.8 8 Nordeste 19 Nordeste 0 -- -- 69
2019-02-14 17:00:00 11.4 12 Nordeste 23 Nordeste 0 -- -- 62
2019-02-14 16:00:00 12.8 10 Nordeste 22 Nordeste 0 -- -- 58
2019-02-14 15:00:00 12.8 9 Nordeste 18 Nordeste 0 -- -- 56
2019-02-14 14:00:00 12.1 12 Nordeste 21 Este 0 -- -- 58
2019-02-14 13:00:00 11.6 7 Nordeste 18 Nordeste 0 -- -- 58
2019-02-14 12:00:00 10.1 8 Nordeste 19 Nordeste 0 -- -- 64
2019-02-14 11:00:00 9.6 7 Nordeste 16 Nordeste 0 -- -- 66
2019-02-14 10:00:00 7.3 3 Este 8 Este 0 -- -- 75
2019-02-14 09:00:00 6 0 Calma 9 Sudoeste 0 -- -- 78
2019-02-14 08:00:00 4.1 6 Sudoeste 11 Sudoeste 0 -- -- 83
2019-02-14 07:00:00 3.4 8 Sudoeste 13 Sudoeste 0 -- -- 84
2019-02-14 06:00:00 2.9 9 Sudoeste 14 Sudoeste 0 -- -- 86
2019-02-14 05:00:00 2.3 9 Sudoeste 15 Sudoeste 0 -- -- 86
2019-02-14 04:00:00 2.3 8 Sudoeste 13 Sudoeste 0 -- -- 87
2019-02-14 03:00:00 3 5 Oeste 14 Sudoeste 0 -- -- 85
2019-02-14 02:00:00 3.3 8 Sudoeste 13 Sudoeste 0 -- -- 85
2019-02-14 01:00:00 3.9 4 Oeste 11 Sudoeste 0 -- -- 84
2019-02-14 00:00:00 4.6 7 Sudoeste 10 Sudoeste 0 -- -- 81
2019-02-13 23:00:00 5.2 5 Sudoeste 14 Sudoeste 0 -- -- 81
2019-02-13 22:00:00 6.4 6 Sudoeste 14 Oeste 0 -- -- 79
2019-02-13 21:00:00 7.7 5 Sudoeste 9 Sudoeste 0 -- -- 77
2019-02-13 20:00:00 8.5 2 Este 12 Nordeste 0 -- -- 78
2019-02-13 19:00:00 10.6 4 Nordeste 14 Nordeste 0 -- -- 71
2019-02-13 18:00:00 12.7 9 Nordeste 18 Nordeste 0 -- -- 61
2019-02-13 17:00:00 14.6 9 Nordeste 21 Nordeste 0 -- -- 52
2019-02-13 16:00:00 15.6 9 Nordeste 19 Este 0 -- -- 41
2019-02-13 15:00:00 15.9 7 Nordeste 18 Nordeste 0 -- -- 36
2019-02-13 14:00:00 15.2 8 Nordeste 18 Nordeste 0 -- -- 32
2019-02-13 13:00:00 14.4 7 Nordeste 16 Este 0 -- -- 27
2019-02-13 12:00:00 12.6 8 Este 14 Este 0 -- -- 40
2019-02-13 11:00:00 11.3 4 Este 9 Sudoeste 0 -- -- 38
2019-02-13 10:00:00 8.3 6 Sudoeste 19 Sudoeste 0 -- -- 34
2019-02-13 09:00:00 4.1 13 Sudoeste 21 Sudoeste 0 -- -- 45
2019-02-13 08:00:00 2.1 12 Sudoeste 19 Sudoeste 0 -- -- 57
2019-02-13 07:00:00 2.6 12 Sudoeste 18 Sudoeste 0 -- -- 60
2019-02-13 06:00:00 2.2 10 Sudoeste 18 Sudoeste 0 -- -- 67
2019-02-13 05:00:00 3.2 9 Oeste 18 Oeste 0 -- -- 65
2019-02-13 04:00:00 3.7 10 Sudoeste 17 Oeste 0 -- -- 68
2019-02-13 03:00:00 4.1 10 Sudoeste 16 Sudoeste 0 -- -- 70
2019-02-13 02:00:00 5 10 Sudoeste 18 Sudoeste 0 -- -- 76
2019-02-13 01:00:00 5.4 8 Sudoeste 15 Sudoeste 0 -- -- 82
2019-02-13 00:00:00 5.9 8 Sudoeste 14 Sudoeste 0 -- -- 82
2019-02-12 23:00:00 6.3 6 Sudoeste 16 Sudoeste 0 -- -- 82
2019-02-12 22:00:00 6.9 8 Sudoeste 14 Sudoeste 0 -- -- 80
2019-02-12 21:00:00 7.6 5 Sudoeste 14 Sur 0 -- -- 77
2019-02-12 20:00:00 8.5 5 Sudoeste 18 Sur 0 -- -- 76
2019-02-12 19:00:00 9.3 5 Sudoeste 19 Sur 0 -- -- 71
2019-02-12 18:00:00 11.2 9 Sur 22 Sur 0 -- -- 62
2019-02-12 17:00:00 12.4 9 Nordeste 17 Nordeste 0 -- -- 60
2019-02-12 16:00:00 14.2 10 Nordeste 18 Nordeste 0 -- -- 49
2019-02-12 15:00:00 14.6 6 Este 13 Sudeste 0 -- -- 43
2019-02-12 14:00:00 14.1 5 Este 18 Este 0 -- -- 42
2019-02-12 13:00:00 12.7 9 Este 18 Este 0 -- -- 45
2019-02-12 12:00:00 11.8 9 Este 15 Este 0 -- -- 50
2019-02-12 11:00:00 11.7 0 Calma 6 Este 0 -- -- 52
2019-02-12 10:00:00 8.2 3 Este 17 Sudoeste 0 -- -- 62
2019-02-12 09:00:00 3.7 11 Sudoeste 18 Sudoeste 0 -- -- 75
2019-02-12 08:00:00 2.7 7 Sudoeste 13 Sudoeste 0 -- -- 80
2019-02-12 07:00:00 2.7 3 Oeste 13 Sudoeste 0 -- -- 80
2019-02-12 06:00:00 3.1 2 Sudoeste 15 Sudoeste 0 -- -- 82
2019-02-12 05:00:00 3.4 11 Sudoeste 17 Sudoeste 0 -- -- 80
2019-02-12 04:00:00 4 9 Sudoeste 15 Sudoeste 0 -- -- 80
2019-02-12 03:00:00 4.3 9 Sudoeste 14 Sudoeste 0 -- -- 82
2019-02-12 02:00:00 4.9 8 Sudoeste 15 Sudoeste 0 -- -- 83
2019-02-12 01:00:00 5.6 8 Sudoeste 14 Sudoeste 0 -- -- 85
2019-02-12 00:00:00 6.4 6 Sudoeste 9 Sudoeste 0 -- -- 85
2019-02-11 23:00:00 6 0 Calma 7 Oeste 0 -- -- 85
2019-02-11 22:00:00 6.8 2 Oeste 4 Sudoeste 0 -- -- 88
2019-02-11 21:00:00 7 0 Calma 3 Sudeste 0 -- -- 86
2019-02-11 20:00:00 8.6 2 Nordeste 6 Nordeste 0 -- -- 82
2019-02-11 19:00:00 9.8 3 Nordeste 9 Nordeste 0 -- -- 79
2019-02-11 18:00:00 11.1 6 Nordeste 15 Nordeste 0 -- -- 73
2019-02-11 17:00:00 12 8 Nordeste 20 Este 0 -- -- 71
2019-02-11 16:00:00 13.1 11 Este 25 Nordeste 0 -- -- 68
2019-02-11 15:00:00 15.3 10 Norte 23 Norte 0 -- -- 55
2019-02-11 14:00:00 16.3 11 Oeste 30 Oeste 0 -- -- 44
2019-02-11 13:00:00 15.8 8 Oeste 21 Oeste 0 -- -- 46
2019-02-11 12:00:00 15.8 9 Oeste 17 Oeste 0 -- -- 52
2019-02-11 11:00:00 14.3 8 Nordeste 21 Oeste 0 -- -- 60
2019-02-11 10:00:00 12.9 10 Oeste 20 Sudoeste 0 -- -- 66
2019-02-11 09:00:00 10.7 5 Sudoeste 13 Sudoeste 0 -- -- 76
2019-02-11 08:00:00 10.1 4 Sudoeste 18 Oeste 0 -- -- 77
2019-02-11 07:00:00 10.7 8 Oeste 24 Oeste 0 -- -- 74
2019-02-11 06:00:00 10.9 7 Oeste 19 Oeste 0 -- -- 73
2019-02-11 05:00:00 10.6 5 Sur 12 Sur 0 -- -- 75
2019-02-11 04:00:00 11 3 Sur 19 Sudoeste 0 -- -- 72
2019-02-11 03:00:00 11.1 5 Sur 18 Sur 0 -- -- 72
2019-02-11 02:00:00 10.8 8 Sur 20 Oeste 0 -- -- 72
2019-02-11 01:00:00 10.6 6 Sur 17 Sudoeste 0 -- -- 70
2019-02-11 00:00:00 10.8 8 Sur 13 Sudeste 0 -- -- 68
2019-02-10 23:00:00 11.1 5 Sur 24 Sur 0 -- -- 65
2019-02-10 22:00:00 11.7 11 Sur 24 Oeste 0 -- -- 62
2019-02-10 21:00:00 12.4 8 Sudeste 24 Oeste 0 -- -- 57
2019-02-10 20:00:00 12.7 8 Sudeste 35 Sudoeste 0 -- -- 55
2019-02-10 19:00:00 13.4 6 Oeste 32 Oeste 0 -- -- 51
2019-02-10 18:00:00 14.3 6 Sudoeste 29 Sudoeste 0 -- -- 47
2019-02-10 17:00:00 15 10 Oeste 36 Oeste 0 -- -- 46
2019-02-10 16:00:00 14.7 9 Sudoeste 33 Noroeste 0 -- -- 46
2019-02-10 15:00:00 15.4 8 Sudoeste 39 Sudoeste 0 -- -- 44
2019-02-10 14:00:00 16 14 Oeste 35 Oeste 0 -- -- 42
2019-02-10 13:00:00 13.3 15 Oeste 50 Oeste 0 -- -- 49
2019-02-10 12:00:00 13.9 18 Oeste 59 Oeste 0 -- -- 48
2019-02-10 11:00:00 14.3 16 Oeste 39 Sudoeste 0 -- -- 36
2019-02-10 10:00:00 12.9 20 Sudoeste 33 Sudoeste 0 -- -- 35
2019-02-10 09:00:00 11.2 8 Sudoeste 22 Oeste 0 -- -- 35
2019-02-10 08:00:00 11 7 Sudoeste 18 Sudoeste 0 -- -- 39
2019-02-10 07:00:00 8.6 13 Sudoeste 22 Sudoeste 0 -- -- 39
2019-02-10 06:00:00 7.7 10 Sudoeste 19 Sudoeste 0 -- -- 49
2019-02-10 05:00:00 8 11 Sudoeste 20 Sudoeste 0 -- -- 53
2019-02-10 04:00:00 8.1 13 Sudoeste 18 Sudoeste 0 -- -- 57
2019-02-10 03:00:00 8.8 13 Sudoeste 18 Sudoeste 0 -- -- 55
2019-02-10 02:00:00 9.3 11 Sudoeste 18 Sudoeste 0 -- -- 57
2019-02-10 01:00:00 8.9 4 Oeste 14 Sudoeste 0 -- -- 61
2019-02-10 00:00:00 10 8 Sudoeste 14 Sudoeste 0 -- -- 57
2019-02-09 23:00:00 10 9 Sudoeste 18 Sudoeste 0 -- -- 57
2019-02-09 22:00:00 10.5 8 Sudoeste 16 Sudoeste 0 -- -- 57
2019-02-09 21:00:00 11.4 7 Sudoeste 13 Sudoeste 0 -- -- 56
2019-02-09 20:00:00 13.1 4 Sudoeste 16 Sudoeste 0 -- -- 52
2019-02-09 19:00:00 14.6 7 Sudoeste 19 Sur 0 -- -- 48
2019-02-09 18:00:00 16.1 10 Sudoeste 21 Sudoeste 0 -- -- 45
2019-02-09 17:00:00 18.3 10 Sur 23 Sur 0 -- -- 37
2019-02-09 16:00:00 20.6 7 Sudoeste 22 Sudoeste 0 -- -- 27
2019-02-09 15:00:00 21.4 6 Sudoeste 23 Sudoeste 0 -- -- 22
2019-02-09 14:00:00 20.1 9 Sudoeste 22 Sudoeste 0 -- -- 24
2019-02-09 13:00:00 18.3 5 Nordeste 18 Este 0 -- -- 32
2019-02-09 12:00:00 18.2 5 Este 15 Sudoeste 0 -- -- 35
2019-02-09 11:00:00 16.2 6 Sur 14 Sur 0 -- -- 37
2019-02-09 10:00:00 12.4 8 Sudoeste 20 Sudoeste 0 -- -- 46
2019-02-09 09:00:00 8.2 16 Sudoeste 20 Sudoeste 0 -- -- 58
2019-02-09 08:00:00 6.4 13 Sudoeste 21 Sudoeste 0 -- -- 62
2019-02-09 07:00:00 6.6 13 Sudoeste 19 Sudoeste 0 -- -- 62
2019-02-09 06:00:00 6.9 12 Sudoeste 18 Sudoeste 0 -- -- 60
2019-02-09 05:00:00 7.1 10 Sudoeste 17 Sudoeste 0 -- -- 58
2019-02-09 04:00:00 8.4 11 Sudoeste 15 Sudoeste 0 -- -- 53
2019-02-09 03:00:00 9.2 10 Oeste 19 Sudoeste 0 -- -- 51
2019-02-09 02:00:00 9.3 12 Sudoeste 17 Sudoeste 0 -- -- 51
2019-02-09 01:00:00 9.8 10 Sudoeste 17 Sudoeste 0 -- -- 57
2019-02-09 00:00:00 10 10 Sudoeste 15 Sudoeste 0 -- -- 62
2019-02-08 23:00:00 10.9 11 Sudoeste 16 Sudoeste 0 -- -- 61
2019-02-08 22:00:00 11.2 9 Sudoeste 14 Sudoeste 0 -- -- 63
2019-02-08 21:00:00 12 8 Sudoeste 13 Sudoeste 0 -- -- 63
2019-02-08 20:00:00 12.5 5 Sudoeste 13 Sudoeste 0 -- -- 62
2019-02-08 19:00:00 13.9 7 Sudoeste 13 Sudoeste 0 -- -- 60
2019-02-08 18:00:00 16.1 5 Sudoeste 16 Sudoeste 0 -- -- 51
2019-02-08 17:00:00 18.9 8 Sudoeste 20 Sur 0 -- -- 34
2019-02-08 16:00:00 19.5 8 Sudoeste 22 Sudoeste 0 -- -- 31
2019-02-08 15:00:00 19.6 9 Sudoeste 25 Sudoeste 0 -- -- 31
2019-02-08 14:00:00 19 13 Sudoeste 28 Sudoeste 0 -- -- 33
2019-02-08 13:00:00 18 16 Oeste 28 Oeste 0 -- -- 35
2019-02-08 12:00:00 17.6 6 Sur 15 Sudeste 0 -- -- 36
2019-02-08 11:00:00 15.4 6 Sur 13 Sur 0 -- -- 43
2019-02-08 10:00:00 12.6 5 Sudoeste 12 Sudoeste 0 -- -- 51
2019-02-08 09:00:00 8.3 10 Sudoeste 23 Sudoeste 0 -- -- 64
2019-02-08 08:00:00 6.9 13 Sudoeste 20 Sudoeste 0 -- -- 68
2019-02-08 07:00:00 6.7 12 Sudoeste 19 Sudoeste 0 -- -- 68
2019-02-08 06:00:00 6.3 12 Sudoeste 20 Sudoeste 0 -- -- 67
2019-02-08 05:00:00 6.6 14 Sudoeste 19 Sudoeste 0 -- -- 66
2019-02-08 04:00:00 6.8 8 Sudoeste 19 Sudoeste 0 -- -- 64
2019-02-08 03:00:00 6.5 11 Sudoeste 17 Sudoeste 0 -- -- 65
2019-02-08 02:00:00 7.2 8 Oeste 17 Sudoeste 0 -- -- 62
2019-02-08 01:00:00 7.7 9 Sudoeste 18 Oeste 0 -- -- 60
2019-02-08 00:00:00 9.1 13 Sudoeste 19 Sudoeste 0 -- -- 57
2019-02-07 23:00:00 9.3 7 Sudoeste 14 Sudoeste 0 -- -- 58
2019-02-07 22:00:00 10.8 7 Oeste 17 Sudoeste 0 -- -- 56
2019-02-07 21:00:00 11.4 9 Sudoeste 19 Sudoeste 0 -- -- 55
2019-02-07 20:00:00 12.6 5 Sudoeste 9 Sudoeste 0 -- -- 55
2019-02-07 19:00:00 14.2 3 Nordeste 13 Nordeste 0 -- -- 51
2019-02-07 18:00:00 17.4 7 Nordeste 17 Nordeste 0 -- -- 41
2019-02-07 17:00:00 19.2 7 Nordeste 15 Nordeste 0 -- -- 37
2019-02-07 16:00:00 20.3 3 Este 16 Nordeste 0 -- -- 32
2019-02-07 15:00:00 19.6 5 Este 20 Este 0 -- -- 35
2019-02-07 14:00:00 18.5 9 Este 19 Este 0 -- -- 38
2019-02-07 13:00:00 18 9 Este 17 Este 0 -- -- 39
2019-02-07 12:00:00 17.8 6 Sudeste 18 Sudoeste 0 -- -- 40
2019-02-07 11:00:00 16.1 8 Sudoeste 21 Sudoeste 0 -- -- 43
2019-02-07 10:00:00 14 10 Sudoeste 19 Sudoeste 0 -- -- 48
2019-02-07 09:00:00 11.4 12 Sudoeste 22 Sudoeste 0 -- -- 56
2019-02-07 08:00:00 11.7 12 Sudoeste 25 Oeste 0 -- -- 54
2019-02-07 07:00:00 10.8 13 Sudoeste 20 Sudoeste 0 -- -- 57
2019-02-07 06:00:00 11.3 10 Sudoeste 21 Sudoeste 0 -- -- 54
2019-02-07 05:00:00 10.8 18 Sudoeste 27 Sudoeste 0 -- -- 53
2019-02-07 04:00:00 11.9 12 Sudoeste 18 Oeste 0 -- -- 50
2019-02-07 03:00:00 11.4 6 Sudoeste 12 Sur 0 -- -- 52
2019-02-07 02:00:00 12.9 8 Oeste 18 Sudoeste 0 -- -- 46
2019-02-07 01:00:00 13.5 6 Oeste 20 Oeste 0 -- -- 43
2019-02-07 00:00:00 12.7 14 Sudoeste 21 Sudoeste 0 -- -- 50
2019-02-06 23:00:00 11.5 11 Sudoeste 18 Sudoeste 0 -- -- 57
2019-02-06 22:00:00 11.6 9 Sudoeste 19 Sudoeste 0 -- -- 58
2019-02-06 21:00:00 12.5 10 Sudoeste 14 Sudoeste 0 -- -- 58
2019-02-06 20:00:00 13.3 5 Sudoeste 10 Sudoeste 0 -- -- 54
2019-02-06 19:00:00 14.3 0 Calma 13 Sudoeste 0 -- -- 51
2019-02-06 18:00:00 17.1 6 Sudoeste 17 Sudoeste 0 -- -- 43
2019-02-06 17:00:00 20.7 5 Oeste 16 Oeste 0 -- -- 32
2019-02-06 16:00:00 20.2 11 Sudoeste 22 Sudoeste 0 -- -- 30
2019-02-06 15:00:00 20.8 9 Oeste -- -- 0 -- -- 30
2019-02-06 14:00:00 19.3 5 Este 17 Este 0 -- -- 38
2019-02-06 13:00:00 17.8 8 Este 15 Este 0 -- -- 42
2019-02-06 12:00:00 15.6 6 Este 11 Nordeste 0 -- -- 50
2019-02-06 11:00:00 14.6 3 Este 6 Este 0 -- -- 52
2019-02-06 10:00:00 12.3 0 Calma 12 Sudoeste 0 -- -- 56
2019-02-06 09:00:00 8.7 7 Sudoeste 18 Sudoeste 0 -- -- 65
2019-02-06 08:00:00 6.8 13 Sudoeste 18 Sudoeste 0 -- -- 72
2019-02-06 07:00:00 6.6 11 Sudoeste 18 Sudoeste 0 -- -- 73
2019-02-06 06:00:00 6.7 9 Sudoeste 17 Sudoeste 0 -- -- 72
2019-02-06 05:00:00 6.7 10 Sudoeste 18 Sudoeste 0 -- -- 70
2019-02-06 04:00:00 7.2 10 Oeste 17 Sudoeste 0 -- -- 69
2019-02-06 03:00:00 7.2 8 Sudoeste 21 Sudoeste 0 -- -- 68
2019-02-06 02:00:00 7.7 12 Sudoeste 18 Sudoeste 0 -- -- 66
2019-02-06 01:00:00 8.5 12 Sudoeste 19 Sudoeste 0 -- -- 63
2019-02-06 00:00:00 8.4 10 Sudoeste 19 Sudoeste 0 -- -- 63
2019-02-05 23:00:00 9.4 10 Sudoeste 17 Sudoeste 0 -- -- 60
2019-02-05 22:00:00 10.3 13 Sudoeste 21 Sudoeste 0 -- -- 57
2019-02-05 21:00:00 9.9 9 Sudoeste 17 Sudoeste 0 -- -- 58
2019-02-05 20:00:00 10.8 10 Sudoeste 17 Sudoeste 0 -- -- 56
2019-02-05 19:00:00 12.7 8 Sudoeste 12 Sudoeste 0 -- -- 52
2019-02-05 18:00:00 15.2 5 Nordeste 14 Este 0 -- -- 44
2019-02-05 17:00:00 16.4 8 Este 18 Este 0 -- -- 40
2019-02-05 16:00:00 16.8 11 Nordeste 26 Este 0 -- -- 40
2019-02-05 15:00:00 17 11 Nordeste 19 Este 0 -- -- 40
2019-02-05 14:00:00 16.3 7 Nordeste 19 Este 0 -- -- 41
2019-02-05 13:00:00 15.2 9 Este 18 Nordeste 0 -- -- 42
2019-02-05 12:00:00 14.2 8 Nordeste 15 Nordeste 0 -- -- 42
2019-02-05 11:00:00 15.1 2 Este 8 Sudoeste 0 -- -- 40
2019-02-05 10:00:00 9.6 8 Sudoeste 14 Sudoeste 0 -- -- 52
2019-02-05 09:00:00 5.7 9 Sudoeste 16 Sudoeste 0 -- -- 59
2019-02-05 08:00:00 5 7 Sudoeste 17 Sudoeste 0 -- -- 57
2019-02-05 07:00:00 5.2 11 Sudoeste 19 Sudoeste 0 -- -- 53
2019-02-05 06:00:00 5.4 12 Sudoeste 18 Sudoeste 0 -- -- 50
2019-02-05 05:00:00 5.2 9 Sudoeste 16 Sudoeste 0 -- -- 50
2019-02-05 04:00:00 5.1 10 Sudoeste 15 Sudoeste 0 -- -- 50
2019-02-05 03:00:00 5.6 12 Sudoeste 17 Sudoeste 0 -- -- 48
2019-02-05 02:00:00 5.6 4 Sudoeste 15 Sudoeste 0 -- -- 47
2019-02-05 01:00:00 6.1 7 Sudoeste 12 Sudoeste 0 -- -- 44
2019-02-05 00:00:00 7 6 Sudoeste 14 Oeste 0 -- -- 41
2019-02-04 23:00:00 7 8 Sudoeste 18 Sudoeste 0 -- -- 40
2019-02-04 22:00:00 8 12 Sudoeste 18 Sudoeste 0 -- -- 36
2019-02-04 21:00:00 8.7 9 Sudoeste 18 Sudoeste 0 -- -- 34
2019-02-04 20:00:00 9.2 12 Sudoeste 20 Sudoeste 0 -- -- 33
2019-02-04 19:00:00 9.4 2 Noroeste 8 Sudoeste 0 -- -- 34
2019-02-04 18:00:00 12.6 3 Este 7 Norte 0 -- -- 23
2019-02-04 17:00:00 14.4 2 Este 8 Este 0 -- -- 19
2019-02-04 16:00:00 14.5 4 Este 13 Nordeste 0 -- -- 19
2019-02-04 15:00:00 13.9 6 Este 18 Este 0 -- -- 17
2019-02-04 14:00:00 13.3 6 Este 14 Este 0 -- -- 20
2019-02-04 13:00:00 11.6 6 Este 13 Nordeste 0 -- -- 20
2019-02-04 12:00:00 10.5 3 Este 11 Este 0 -- -- 20
2019-02-04 11:00:00 9.6 0 Calma 10 Sur 0 -- -- 29
2019-02-04 10:00:00 5.4 5 Sudoeste 12 Sudoeste 0 -- -- 39
2019-02-04 09:00:00 1.4 6 Sudoeste 12 Sudoeste 0 -- -- 50
2019-02-04 08:00:00 -0.4 4 Sudoeste 12 Sudoeste 0 -- -- 58
2019-02-04 07:00:00 0.4 4 Sudoeste 20 Oeste 0 -- -- 55
2019-02-04 06:00:00 1.6 13 Sudoeste 22 Sudoeste 0 -- -- 51
2019-02-04 05:00:00 1.5 14 Oeste 19 Oeste 0 -- -- 52
2019-02-04 04:00:00 1.3 11 Sudoeste 16 Sudoeste 0 -- -- 53
2019-02-04 03:00:00 2.9 8 Sudoeste 18 Oeste 0 -- -- 47
2019-02-04 02:00:00 3.2 8 Sur 22 Noroeste 0 -- -- 47
2019-02-04 01:00:00 4.2 7 Noroeste 23 Noroeste 0 -- -- 44
2019-02-04 00:00:00 4.3 9 Noroeste 20 Noroeste 0 -- -- 44
2019-02-03 23:00:00 3.6 0 Calma 23 Norte 0 -- -- 42
2019-02-03 22:00:00 5.6 17 Norte 45 Noroeste 0 -- -- 34
2019-02-03 21:00:00 5.7 8 Norte 31 Noroeste 0 -- -- 33
2019-02-03 20:00:00 6.4 9 Norte 32 Noroeste 0 -- -- 31
2019-02-03 19:00:00 7.1 14 Noroeste 40 Noroeste 0 -- -- 32
2019-02-03 18:00:00 7.6 14 Noroeste 46 Noroeste 0 -- -- 29
2019-02-03 17:00:00 8.8 16 Norte 47 Nordeste 0 -- -- 25
2019-02-03 16:00:00 9.3 23 Noroeste 46 Noroeste 0 -- -- 28
2019-02-03 15:00:00 9.6 16 Norte 48 Noroeste 0 -- -- 28
2019-02-03 14:00:00 9.2 20 Noroeste 48 Oeste 0 -- -- 29
2019-02-03 13:00:00 8.6 21 Noroeste 46 Noroeste 0 -- -- 30
2019-02-03 12:00:00 7.8 18 Noroeste 38 Noroeste 0 -- -- 34
2019-02-03 11:00:00 6.2 24 Noroeste 51 Noroeste 0 -- -- 38
2019-02-03 10:00:00 5.5 17 Noroeste 35 Noroeste 0 -- -- 40
2019-02-03 09:00:00 4 14 Noroeste 38 Noroeste 0 -- -- 45
2019-02-03 08:00:00 3.2 17 Noroeste 40 Noroeste 0 -- -- 49
2019-02-03 07:00:00 3.1 15 Oeste 44 Oeste 0 -- -- 50
2019-02-03 06:00:00 3.6 15 Noroeste 41 Noroeste 0 -- -- 49
2019-02-03 05:00:00 3.7 16 Oeste 44 Oeste 0 -- -- 51
2019-02-03 04:00:00 4.1 17 Oeste 43 Noroeste 0 -- -- 49
2019-02-03 03:00:00 4.3 18 Oeste 50 Noroeste 0 -- -- 47
2019-02-03 02:00:00 4.2 11 Oeste 37 Oeste 0 -- -- 46
2019-02-03 01:00:00 4.4 18 Oeste 39 Oeste 0 -- -- 46
2019-02-03 00:00:00 4.6 17 Oeste 36 Oeste 0 -- -- 43
2019-02-02 23:00:00 5 18 Oeste 46 Noroeste 0 -- -- 44
2019-02-02 22:00:00 5.5 12 Oeste 35 Noroeste 0 -- -- 41
2019-02-02 21:00:00 6.5 11 Noroeste 34 Oeste 0 -- -- 34
2019-02-02 20:00:00 7.3 15 Noroeste 39 Noroeste 0 -- -- 30
2019-02-02 19:00:00 7.7 16 Noroeste 46 Noroeste 0 -- -- 32
2019-02-02 18:00:00 8.3 17 Noroeste 47 Noroeste 0 -- -- 33
2019-02-02 17:00:00 9.6 12 Noroeste 53 Noroeste 0 -- -- 32
2019-02-02 16:00:00 11 17 Noroeste 54 Noroeste 0 -- -- 33
2019-02-02 15:00:00 10 18 Oeste 63 Oeste 0 -- -- 40
2019-02-02 14:00:00 9.6 27 Oeste 59 Oeste 0 -- -- 42
2019-02-02 13:00:00 8.4 19 Noroeste 63 Noroeste 0 -- -- 43
2019-02-02 12:00:00 9.6 30 Noroeste 65 Oeste 0 -- -- 42
2019-02-02 11:00:00 8 25 Oeste 60 Oeste 0 -- -- 49
2019-02-02 10:00:00 7.5 26 Oeste 70 Noroeste 0 -- -- 51
2019-02-02 09:00:00 6.3 40 Oeste 81 Oeste 0 -- -- 55
2019-02-02 08:00:00 6.1 35 Oeste 67 Oeste 0 -- -- 57
2019-02-02 07:00:00 6 32 Oeste 69 Oeste 0 -- -- 58
2019-02-02 06:00:00 6.3 26 Oeste 66 Noroeste 0 -- -- 56
2019-02-02 05:00:00 6.3 26 Oeste 79 Oeste 0 -- -- 58
2019-02-02 04:00:00 6.4 22 Oeste 76 Oeste 0 -- -- 58
2019-02-02 03:00:00 6.9 30 Oeste 79 Oeste 0 -- -- 57
2019-02-02 02:00:00 7.2 30 Oeste 78 Noroeste 0 -- -- 55
2019-02-02 01:00:00 7.1 24 Oeste 66 Oeste 0 -- -- 55
2019-02-02 00:00:00 6.9 11 Oeste 41 Sudoeste 0 -- -- 59
2019-02-01 23:00:00 7.4 23 Oeste 54 Sudoeste 0 -- -- 57
2019-02-01 22:00:00 7.8 15 Sudoeste 45 Sudoeste 0 -- -- 62
2019-02-01 21:00:00 8 24 Sudoeste 58 Sudoeste 0 -- -- 69
2019-02-01 20:00:00 9.9 13 Sudoeste 37 Sudoeste 0 -- -- 51
2019-02-01 19:00:00 10.6 18 Sudoeste 42 Sudoeste 0 -- -- 46
2019-02-01 18:00:00 11.8 12 Sudoeste 45 Noroeste 0 -- -- 39
2019-02-01 17:00:00 12.9 13 Sudoeste 45 Oeste 0 -- -- 38
2019-02-01 16:00:00 13.3 16 Oeste 57 Oeste 0 -- -- 38
2019-02-01 15:00:00 13.3 21 Sudoeste 58 Sudoeste 0 -- -- 40
2019-02-01 14:00:00 14.1 19 Oeste 45 Sudoeste 0 -- -- 39
2019-02-01 13:00:00 12.6 16 Sudoeste 49 Sudoeste 0.4 -- -- 61
2019-02-01 12:00:00 12.6 13 Oeste 37 Sudoeste 0 -- -- 71
2019-02-01 11:00:00 13.5 18 Sudoeste 33 Sudoeste 0.2 -- -- 65
2019-02-01 10:00:00 11.8 15 Sudoeste 26 Oeste 0.8 -- -- 78
2019-02-01 09:00:00 11.6 10 Oeste 26 Oeste 0.8 -- -- 79
2019-02-01 08:00:00 13.2 15 Sudoeste 30 Sudoeste 0 -- -- 61
2019-02-01 07:00:00 13.5 17 Sudoeste 31 Sudoeste 0 -- -- 57
2019-02-01 06:00:00 13.7 14 Oeste 35 Oeste 0 -- -- 55
2019-02-01 05:00:00 13.7 10 Sudoeste 22 Oeste 0 -- -- 53
2019-02-01 04:00:00 13.4 9 Sudoeste 25 Sudoeste 0 -- -- 55
2019-02-01 03:00:00 13.3 9 Sudoeste 26 Oeste 0 -- -- 59
2019-02-01 02:00:00 12.9 7 Sudoeste 18 Sudoeste 0 -- -- 59
2019-02-01 01:00:00 12.8 6 Sudoeste 21 Sudoeste 0 -- -- 60
2019-02-01 00:00:00 13.5 11 Sudoeste 32 Sudoeste 0 -- -- 58
2019-01-31 23:00:00 13.4 9 Sur 31 Sudoeste 0 -- -- 59
2019-01-31 22:00:00 13.6 19 Sudoeste 37 Sudoeste 0 -- -- 60
2019-01-31 21:00:00 13.5 21 Oeste 35 Oeste 0 -- -- 61
2019-01-31 20:00:00 13.7 15 Sudoeste 27 Oeste 0 -- -- 59
2019-01-31 19:00:00 14.2 19 Oeste 51 Sudoeste 0 -- -- 57
2019-01-31 18:00:00 15.1 26 Oeste 67 Oeste 0 -- -- 52
2019-01-31 17:00:00 15.7 34 Oeste 72 Oeste 0 -- -- 54
2019-01-31 16:00:00 15.9 24 Oeste 53 Oeste 0 -- -- 51
2019-01-31 15:00:00 15.8 17 Sur 48 Sudoeste 0 -- -- 49
2019-01-31 14:00:00 15.2 12 Sudoeste 49 Sur 0 -- -- 57
2019-01-31 13:00:00 14.5 15 Sudoeste 47 Sudoeste 0 -- -- 57
2019-01-31 12:00:00 14.2 12 Sudoeste 35 Oeste 0 -- -- 59
2019-01-31 11:00:00 13.3 12 Oeste 44 Oeste 0 -- -- 63
2019-01-31 10:00:00 12.9 18 Sudoeste 41 Sudoeste 0 -- -- 64
2019-01-31 09:00:00 12.5 16 Sudoeste 35 Oeste 0 -- -- 65
2019-01-31 08:00:00 12 9 Sudoeste 40 Oeste 0 -- -- 66
2019-01-31 07:00:00 11.6 18 Sudoeste 55 Sudoeste 0 -- -- 63
2019-01-31 06:00:00 11.2 13 Sudoeste 45 Oeste 0 -- -- 63
2019-01-31 05:00:00 10.8 12 Oeste 38 Sudoeste 0 -- -- 63
2019-01-31 04:00:00 10.8 14 Sudoeste 52 Sudoeste 0 -- -- 63
2019-01-31 03:00:00 10.8 26 Sudoeste 40 Oeste 0 -- -- 62
2019-01-31 02:00:00 10.7 23 Sudoeste 41 Sudoeste 0 -- -- 61
2019-01-31 01:00:00 10.3 12 Oeste 34 Sudoeste 0 -- -- 60
2019-01-31 00:00:00 10 12 Sudoeste 31 Oeste 0 -- -- 58
2019-01-30 23:00:00 9.6 8 Sudoeste 23 Sudoeste 0 -- -- 56
2019-01-30 22:00:00 9.9 11 Sudoeste 56 Oeste 0 -- -- 49
2019-01-30 21:00:00 9.9 8 Sudoeste 24 Oeste 0 -- -- 46
2019-01-30 20:00:00 9.9 10 Sudoeste 28 Sudoeste 0 -- -- 46
2019-01-30 19:00:00 10.3 8 Sudoeste 22 Oeste 0 -- -- 44
2019-01-30 18:00:00 11 10 Oeste 26 Oeste 0 -- -- 43
2019-01-30 17:00:00 12.4 9 Oeste 33 Oeste 0 -- -- 39
2019-01-30 16:00:00 12.8 10 Noroeste 40 Oeste 0 -- -- 36
2019-01-30 15:00:00 12.3 14 Oeste 46 Oeste 0 -- -- 38
2019-01-30 14:00:00 12.4 19 Oeste 40 Oeste 0 -- -- 36
2019-01-30 13:00:00 11.8 18 Oeste 33 Oeste 0 -- -- 41
2019-01-30 12:00:00 12.4 9 Oeste 29 Sudoeste 0 -- -- 38
2019-01-30 11:00:00 11.2 9 Oeste 36 Oeste 0 -- -- 43
2019-01-30 10:00:00 9.2 13 Oeste 33 Oeste 0 -- -- 54
2019-01-30 09:00:00 8.2 3 Noroeste 14 Sudoeste 0 -- -- 63
2019-01-30 08:00:00 9 5 Sudoeste 19 Sudoeste 0 -- -- 63
2019-01-30 07:00:00 9.2 4 Sudeste 17 Sudoeste 0 -- -- 64
2019-01-30 06:00:00 9.6 4 Sudoeste 36 Noroeste 0 -- -- 61
2019-01-30 05:00:00 9.9 12 Noroeste 44 Noroeste 0 -- -- 58
2019-01-30 04:00:00 10.2 15 Oeste 48 Oeste 0 -- -- 59
2019-01-30 03:00:00 10.4 22 Oeste 54 Oeste 0 -- -- 61
2019-01-30 02:00:00 10.8 19 Oeste 57 Oeste 0 -- -- 57
2019-01-30 01:00:00 11.1 21 Oeste 52 Oeste 0 -- -- 58
2019-01-30 00:00:00 11.2 22 Oeste 59 Oeste 0 -- -- 60
2019-01-29 23:00:00 11.1 22 Oeste 54 Oeste 0 -- -- 62
2019-01-29 22:00:00 11 24 Oeste 49 Oeste 0 -- -- 61
2019-01-29 21:00:00 10.9 15 Oeste 49 Oeste 0 -- -- 60
2019-01-29 20:00:00 11 27 Oeste 59 Oeste 0 -- -- 57
2019-01-29 19:00:00 11.3 32 Oeste 59 Oeste 0 -- -- 54
2019-01-29 18:00:00 11.3 26 Oeste 59 Oeste 0 -- -- 56
2019-01-29 17:00:00 11.3 27 Oeste 54 Sudoeste 0 -- -- 54
2019-01-29 16:00:00 11.8 27 Oeste 61 Sudoeste 0 -- -- 54
2019-01-29 15:00:00 13.8 21 Oeste 45 Oeste 0 -- -- 46
2019-01-29 14:00:00 11.6 10 Oeste 41 Noroeste 0 -- -- 54
2019-01-29 13:00:00 12 19 Oeste 39 Sudoeste 0 -- -- 51
2019-01-29 12:00:00 11.1 10 Oeste 35 Oeste 0 -- -- 51
2019-01-29 11:00:00 9.3 15 Sudoeste 30 Sudoeste 0 -- -- 57
2019-01-29 10:00:00 7.6 6 Sudoeste 13 Oeste 0 -- -- 62
2019-01-29 09:00:00 6.4 6 Sur 15 Sur 0 -- -- 65
2019-01-29 08:00:00 6.8 8 Sudoeste 17 Oeste 0 -- -- 60
2019-01-29 07:00:00 7.3 10 Sudoeste 20 Sudoeste 0 -- -- 59
2019-01-29 06:00:00 7.1 6 Sudoeste 22 Sudoeste 0 -- -- 62
2019-01-29 05:00:00 7.7 6 Sudoeste 19 Sudoeste 0 -- -- 58
2019-01-29 04:00:00 8.4 6 Sur 17 Sur 0 -- -- 55
2019-01-29 03:00:00 8.8 7 Sudoeste 15 Oeste 0 -- -- 58
2019-01-29 02:00:00 9.2 9 Sudoeste 26 Oeste 0 -- -- 60
2019-01-29 01:00:00 9.7 6 Sur 18 Noroeste 0 -- -- 59
2019-01-29 00:00:00 10.5 9 Oeste 23 Sudeste 0 -- -- 56
2019-01-28 23:00:00 11.6 13 Oeste 40 Oeste 0 -- -- 49
2019-01-28 22:00:00 12 20 Noroeste 40 Noroeste 0 -- -- 46
2019-01-28 21:00:00 12.2 13 Noroeste 50 Noroeste 0 -- -- 43
2019-01-28 20:00:00 12.5 19 Noroeste 38 Noroeste 0 -- -- 41
2019-01-28 19:00:00 12.8 18 Noroeste 42 Noroeste 0 -- -- 38
2019-01-28 18:00:00 12.9 15 Noroeste 42 Noroeste 0 -- -- 38
2019-01-28 17:00:00 13.8 19 Noroeste 53 Noroeste 0 -- -- 36
2019-01-28 16:00:00 14.4 18 Noroeste 53 Oeste 0 -- -- 35
2019-01-28 15:00:00 14.5 21 Noroeste 55 Noroeste 0 -- -- 34
2019-01-28 14:00:00 13.2 31 Oeste 61 Oeste 0 -- -- 37
2019-01-28 13:00:00 12 27 Oeste 60 Oeste 0 -- -- 40
2019-01-28 12:00:00 11.2 27 Oeste 55 Oeste 0 -- -- 42
2019-01-28 11:00:00 10.5 15 Oeste 48 Oeste 0 -- -- 42
2019-01-28 10:00:00 8.6 26 Oeste 48 Oeste 0 -- -- 47
2019-01-28 09:00:00 8.3 25 Oeste 51 Oeste 0 -- -- 45
2019-01-28 08:00:00 7.2 23 Oeste 49 Oeste 0 -- -- 47
2019-01-28 07:00:00 7.9 22 Noroeste 46 Oeste 0 -- -- 44
2019-01-28 06:00:00 7.5 15 Oeste 42 Oeste 0 -- -- 46
2019-01-28 05:00:00 8.3 11 Oeste 38 Oeste 0 -- -- 45
2019-01-28 04:00:00 8.5 11 Oeste 29 Noroeste 0 -- -- 44
2019-01-28 03:00:00 8.3 8 Sur 35 Noroeste 0 -- -- 44
2019-01-28 02:00:00 9.3 15 Oeste 40 Noroeste 0 -- -- 41
2019-01-28 01:00:00 9.4 10 Noroeste 30 Noroeste 0 -- -- 41
2019-01-28 00:00:00 9.7 10 Noroeste 21 Oeste 0 -- -- 39
2019-01-27 23:00:00 9.9 6 Noroeste 37 Norte 0 -- -- 37
2019-01-27 22:00:00 10.5 8 Noroeste 28 Noroeste 0 -- -- 36
2019-01-27 21:00:00 10.7 8 Noroeste 24 Noroeste 0 -- -- 36
2019-01-27 20:00:00 11.5 9 Sudoeste 34 Noroeste 0 -- -- 36
2019-01-27 19:00:00 12.1 14 Noroeste 33 Noroeste 0 -- -- 35
2019-01-27 18:00:00 12.5 10 Noroeste 37 Oeste 0 -- -- 38
2019-01-27 17:00:00 14.1 11 Oeste 40 Oeste 0 -- -- 36
2019-01-27 16:00:00 14.3 15 Noroeste 46 Noroeste 0 -- -- 39
2019-01-27 15:00:00 14.2 22 Noroeste 42 Noroeste 0 -- -- 39
2019-01-27 14:00:00 14.6 20 Oeste 48 Noroeste 0 -- -- 43
2019-01-27 13:00:00 13.7 24 Oeste 48 Noroeste 0 -- -- 46
2019-01-27 12:00:00 13.3 10 Oeste 48 Oeste 0 -- -- 49
2019-01-27 11:00:00 13.6 14 Oeste 42 Norte 0 -- -- 49
2019-01-27 10:00:00 12.1 19 Oeste 44 Oeste 0 -- -- 54
2019-01-27 09:00:00 11.1 8 Sur 27 Noroeste 0 -- -- 53
2019-01-27 08:00:00 11.2 9 Sudoeste 26 Sudoeste 0 -- -- 53
2019-01-27 07:00:00 10.7 4 Norte 18 Este 0 -- -- 57
2019-01-27 06:00:00 11.6 9 Oeste 30 Oeste 0 -- -- 47
2019-01-27 05:00:00 11.4 5 Sur 42 Oeste 0 -- -- 44
2019-01-27 04:00:00 12 10 Sudoeste 38 Oeste 0 -- -- 44
2019-01-27 03:00:00 12.1 15 Oeste 47 Sudoeste 0 -- -- 46
2019-01-27 02:00:00 12.2 12 Oeste 32 Oeste 0 -- -- 44
2019-01-27 01:00:00 13 12 Sudoeste 31 Sudoeste 0 -- -- 36
2019-01-27 00:00:00 12.3 9 Sudoeste 28 Sudoeste 0 -- -- 38
2019-01-26 23:00:00 12.8 8 Sudoeste 28 Oeste 0 -- -- 35
2019-01-26 22:00:00 13.3 16 Sudoeste 33 Oeste 0 -- -- 34
2019-01-26 21:00:00 12.8 7 Sudoeste 18 Sudoeste 0 -- -- 39
2019-01-26 20:00:00 12.9 6 Sudoeste 12 Sudoeste 0 -- -- 41
2019-01-26 19:00:00 13.8 8 Sur 15 Sur 0 -- -- 41
2019-01-26 18:00:00 15.4 0 Calma 29 Oeste 0 -- -- 39
2019-01-26 17:00:00 18.3 5 Oeste 27 Sudoeste 0 -- -- 33
2019-01-26 16:00:00 18.2 14 Oeste 27 Oeste 0 -- -- 33
2019-01-26 15:00:00 18.1 13 Oeste 25 Sur 0 -- -- 34
2019-01-26 14:00:00 17.3 10 Sur 26 Sur 0 -- -- 38
2019-01-26 13:00:00 16.7 11 Sudoeste 26 Sudoeste 0 -- -- 39
2019-01-26 12:00:00 16.5 8 Sudoeste 24 Sur 0 -- -- 40
2019-01-26 11:00:00 15.8 5 Sudoeste 13 Sudoeste 0 -- -- 43
2019-01-26 10:00:00 11 7 Sudoeste 14 Sudoeste 0 -- -- 53
2019-01-26 09:00:00 6.7 7 Oeste 19 Sudoeste 0 -- -- 65
2019-01-26 08:00:00 4.2 0 Calma 17 Sudoeste 0 -- -- 73
2019-01-26 07:00:00 6.2 11 Sudoeste 19 Sudoeste 0 -- -- 66
2019-01-26 06:00:00 5.2 9 Oeste 18 Sudoeste 0 -- -- 70
2019-01-26 05:00:00 5.5 10 Sudoeste 19 Sudoeste 0 -- -- 70
2019-01-26 04:00:00 5.4 10 Sudoeste 17 Sudoeste 0 -- -- 70
2019-01-26 03:00:00 6.7 9 Sudoeste 15 Sudoeste 0 -- -- 66
2019-01-26 02:00:00 7.8 5 Sudoeste 12 Sur 0 -- -- 63
2019-01-26 01:00:00 9 8 Sudoeste 14 Sudoeste 0 -- -- 60
2019-01-26 00:00:00 10 9 Oeste 14 Oeste 0 -- -- 57
2019-01-25 23:00:00 11 7 Oeste 16 Noroeste 0 -- -- 54
2019-01-25 22:00:00 11.3 7 Sudoeste 15 Sudoeste 0 -- -- 54
2019-01-25 21:00:00 11.3 3 Oeste 14 Oeste 0 -- -- 55
2019-01-25 20:00:00 12.2 5 Sudoeste 15 Oeste 0 -- -- 52
2019-01-25 19:00:00 13.4 4 Sudeste 13 Sudeste 0 -- -- 48
2019-01-25 18:00:00 14.5 6 Norte 18 Norte 0 -- -- 45
2019-01-25 17:00:00 16.4 8 Noroeste 27 Noroeste 0 -- -- 41
2019-01-25 16:00:00 17 11 Noroeste 31 Noroeste 0 -- -- 40
2019-01-25 15:00:00 17.2 6 Noroeste 26 Nordeste 0 -- -- 40
2019-01-25 14:00:00 15.8 8 Nordeste 28 Nordeste 0 -- -- 45
2019-01-25 13:00:00 14.7 13 Nordeste 38 Norte 0 -- -- 47
2019-01-25 12:00:00 15 13 Norte 34 Nordeste 0 -- -- 45
2019-01-25 11:00:00 14.3 11 Norte 28 Nordeste 0 -- -- 47
2019-01-25 10:00:00 13.5 9 Noroeste 30 Noroeste 0 -- -- 50
2019-01-25 09:00:00 11.5 7 Noroeste 22 Oeste 0 -- -- 56
2019-01-25 08:00:00 10.7 8 Norte 35 Noroeste 0 -- -- 56
2019-01-25 07:00:00 10.6 8 Noroeste 31 Noroeste 0 -- -- 56
2019-01-25 06:00:00 10.4 10 Noroeste 31 Oeste 0 -- -- 57
2019-01-25 05:00:00 10 13 Noroeste 39 Oeste 0 -- -- 58
2019-01-25 04:00:00 10.2 12 Noroeste 32 Oeste 0 -- -- 57
2019-01-25 03:00:00 10 9 Noroeste 33 Noroeste 0 -- -- 56
2019-01-25 02:00:00 10.7 12 Norte 32 Noroeste 0 -- -- 53
2019-01-25 01:00:00 10.2 11 Noroeste 39 Norte 0 -- -- 54
2019-01-25 00:00:00 9.9 12 Noroeste 34 Noroeste 0 -- -- 54
2019-01-24 23:00:00 9.8 11 Noroeste 40 Oeste 0 -- -- 54
2019-01-24 22:00:00 10.1 8 Noroeste 42 Noroeste 0 -- -- 53
2019-01-24 21:00:00 10.2 12 Noroeste 43 Noroeste 0 -- -- 53
2019-01-24 20:00:00 10.5 21 Noroeste 48 Noroeste 0 -- -- 51
2019-01-24 19:00:00 11.2 16 Noroeste 44 Norte 0 -- -- 49
2019-01-24 18:00:00 10.6 12 Norte 25 Este 0 -- -- 48
2019-01-24 17:00:00 10.9 14 Nordeste 33 Nordeste 0 -- -- 46
2019-01-24 16:00:00 11.7 10 Norte 26 Nordeste 0 -- -- 44
2019-01-24 15:00:00 11 10 Norte 26 Nordeste 0 -- -- 45
2019-01-24 14:00:00 11 10 Nordeste 36 Este 0 -- -- 46
2019-01-24 13:00:00 11.6 15 Nordeste 36 Nordeste 0 -- -- 46
2019-01-24 12:00:00 11 17 Nordeste 37 Nordeste 0 -- -- 48
2019-01-24 11:00:00 10.6 11 Nordeste 32 Nordeste 0 -- -- 53
2019-01-24 10:00:00 10 8 Norte 28 Noroeste 0 -- -- 58
2019-01-24 09:00:00 10.6 10 Noroeste 33 Noroeste 0 -- -- 59
2019-01-24 08:00:00 10.9 15 Noroeste 37 Noroeste 0 -- -- 57
2019-01-24 07:00:00 11.3 15 Noroeste 36 Oeste 0 -- -- 55
2019-01-24 06:00:00 11.3 17 Noroeste 47 Noroeste 0 -- -- 54
2019-01-24 05:00:00 11.4 17 Noroeste 50 Oeste 0 -- -- 54
2019-01-24 04:00:00 11.9 19 Noroeste 50 Oeste 0 -- -- 53
2019-01-24 03:00:00 12.1 19 Oeste 49 Oeste 0 -- -- 53
2019-01-24 02:00:00 12.6 23 Noroeste 57 Oeste 0 -- -- 52
2019-01-24 01:00:00 12.8 24 Noroeste 51 Oeste 0 -- -- 52
2019-01-24 00:00:00 12.6 19 Noroeste 63 Oeste 0 -- -- 54